Time;durP1;ratioP1;P1;durP2;ratioP2;P2;SDS_P1;SDS_P2;PMS_P1;PMS_P2;Temp;Humidity;BMP_temperature;BMP_pressure;BME280_temperature;BME280_humidity;BME280_pressure;Samples;Min_cycle;Max_cycle;Signal;HPM_P1;HPM_P2
2022/08/22 00:01:41;;;;;;;11.57;3.95;;;;;;;18.22;49.53;100982.75;5012554;28;20056;-68
2022/08/22 00:04:30;;;;;;;11.23;4.93;;;;;;;18.26;50.36;100984.84;5013163;28;20409;-68
2022/08/22 00:07:00;;;;;;;8.30;4.45;;;;;;;18.25;51.03;100998.66;5012492;28;20077;-68
2022/08/22 00:09:36;;;;;;;12.25;4.15;;;;;;;18.14;48.36;100996.50;5011442;28;20132;-67
2022/08/22 00:12:09;;;;;;;10.00;4.45;;;;;;;18.16;49.97;100986.28;5025126;28;20072;-68
2022/08/22 00:14:45;;;;;;;12.20;4.32;;;;;;;18.10;50.26;100985.22;5036842;28;20124;-67
2022/08/22 00:17:30;;;;;;;8.57;4.10;;;;;;;18.11;50.55;100991.47;5032083;28;20108;-66
2022/08/22 00:20:09;;;;;;;7.78;4.13;;;;;;;18.09;50.71;100981.63;5027299;28;20132;-68
2022/08/22 00:22:47;;;;;;;15.68;5.28;;;;;;;18.05;49.90;100991.22;5032994;28;20572;-68
2022/08/22 00:25:48;;;;;;;11.13;4.80;;;;;;;18.11;50.07;100981.44;5032952;28;20080;-67
2022/08/22 00:28:34;;;;;;;10.75;3.88;;;;;;;18.09;50.13;100988.94;5031496;28;20456;-68
2022/08/22 00:31:38;;;;;;;15.25;4.10;;;;;;;18.00;50.00;100982.03;5031292;28;20084;-66
2022/08/22 00:34:12;;;;;;;10.13;4.15;;;;;;;17.90;50.51;100985.13;5031664;28;20477;-67
2022/08/22 00:36:55;;;;;;;13.55;4.68;;;;;;;17.88;50.84;100991.78;5025688;28;20046;-67
2022/08/22 00:39:32;;;;;;;11.45;4.20;;;;;;;17.91;51.11;100992.22;5023925;28;20045;-67
2022/08/22 00:41:59;;;;;;;11.20;4.68;;;;;;;17.85;51.05;100996.56;5032449;28;20109;-68
2022/08/22 00:45:07;;;;;;;8.63;3.85;;;;;;;17.87;51.15;100985.53;5024626;28;20140;-68
2022/08/22 00:47:37;;;;;;;9.35;4.50;;;;;;;17.79;51.86;100993.84;5031527;28;20477;-68
2022/08/22 00:50:26;;;;;;;7.15;4.32;;;;;;;17.76;52.07;100995.06;5031333;28;20083;-68
2022/08/22 00:53:16;;;;;;;8.45;4.35;;;;;;;17.69;52.72;100986.06;5030666;28;20154;-68
2022/08/22 00:56:07;;;;;;;9.05;5.05;;;;;;;17.62;53.27;100989.78;5031845;28;20079;-66
2022/08/22 00:58:52;;;;;;;8.70;4.65;;;;;;;17.57;53.66;100979.53;5027294;28;20488;-68
2022/08/22 01:01:28;;;;;;;11.18;5.47;;;;;;;17.58;53.62;100989.34;5032444;28;20136;-67
2022/08/22 01:04:03;;;;;;;11.68;4.97;;;;;;;17.57;53.82;100982.22;5031414;28;20052;-67
2022/08/22 01:07:13;;;;;;;10.75;5.40;;;;;;;17.60;53.65;100982.66;5031703;28;20072;-67
2022/08/22 01:09:58;;;;;;;12.52;4.97;;;;;;;17.66;53.32;100996.47;5030694;28;20148;-67
2022/08/22 01:12:25;;;;;;;9.60;4.88;;;;;;;17.58;53.60;100998.31;5021312;28;20081;-67
2022/08/22 01:15:01;;;;;;;12.27;5.07;;;;;;;17.53;54.13;101003.50;5011483;28;20128;-67
2022/08/22 01:18:03;;;;;;;16.27;5.35;;;;;;;17.52;53.81;101007.25;5011284;28;20050;-67
2022/08/22 01:20:32;;;;;;;12.35;5.35;;;;;;;17.55;54.00;101003.31;5010528;28;20223;-67
2022/08/22 01:23:29;;;;;;;9.40;5.22;;;;;;;17.51;54.23;101012.84;5010226;28;20132;-67
2022/08/22 01:26:40;;;;;;;11.63;5.10;;;;;;;17.47;54.26;101012.41;5010605;28;20129;-68
2022/08/22 01:29:27;;;;;;;9.00;5.13;;;;;;;17.42;54.66;101014.91;5009926;28;20120;-67
2022/08/22 01:32:26;;;;;;;13.32;5.53;;;;;;;17.37;55.00;101011.94;5010444;28;20052;-67
2022/08/22 01:34:59;;;;;;;9.73;5.10;;;;;;;17.34;54.78;101015.91;5010245;28;20069;-67
2022/08/22 01:38:03;;;;;;;10.73;5.45;;;;;;;17.34;55.25;101015.06;5009479;28;20125;-67
2022/08/22 01:40:57;;;;;;;12.40;5.60;;;;;;;17.32;54.96;101017.09;5009473;28;20080;-67
2022/08/22 01:43:57;;;;;;;12.70;5.82;;;;;;;17.35;54.88;101009.44;5010473;28;20045;-67
2022/08/22 01:46:34;;;;;;;10.35;5.30;;;;;;;17.26;55.10;101020.59;5009916;28;20401;-67
2022/08/22 01:49:17;;;;;;;13.65;5.53;;;;;;;17.22;55.48;101017.44;5004461;28;20061;-67
2022/08/22 01:51:54;;;;;;;10.23;4.85;;;;;;;17.22;55.49;101022.03;5010984;28;20116;-67
2022/08/22 01:55:03;;;;;;;9.35;4.40;;;;;;;17.17;55.75;101019.06;5011552;28;20129;-67
2022/08/22 01:57:29;;;;;;;11.88;5.30;;;;;;;17.16;55.63;101014.66;4974854;28;20073;-68
2022/08/22 02:00:00;;;;;;;11.07;4.57;;;;;;;17.12;55.88;101015.06;5010395;28;20471;-67
2022/08/22 02:02:59;;;;;;;10.77;4.90;;;;;;;17.14;55.60;101014.88;5010077;28;20076;-67
2022/08/22 02:05:30;;;;;;;9.43;4.60;;;;;;;17.12;55.55;101017.78;5009186;28;20558;-67
2022/08/22 02:08:02;;;;;;;11.05;5.03;;;;;;;17.10;55.83;101011.72;5009153;28;20180;-67
2022/08/22 02:11:01;;;;;;;10.90;5.20;;;;;;;17.10;56.05;101006.31;5009916;28;20142;-67
2022/08/22 02:13:55;;;;;;;9.25;5.07;;;;;;;17.05;56.02;101003.31;4994457;28;20137;-68
2022/08/22 02:16:37;;;;;;;12.77;4.72;;;;;;;17.04;56.36;101009.78;5009035;28;20120;-67
2022/08/22 02:19:03;;;;;;;8.32;4.50;;;;;;;16.99;56.11;101009.56;5009326;28;20042;-67
2022/08/22 02:21:48;;;;;;;9.68;4.75;;;;;;;16.93;56.43;101010.34;5009865;28;20141;-67
2022/08/22 02:24:33;;;;;;;10.52;5.00;;;;;;;16.93;56.53;101009.50;5009015;28;20133;-67
2022/08/22 02:27:11;;;;;;;10.30;5.03;;;;;;;16.91;56.71;101012.38;5008978;28;20409;-67
2022/08/22 02:30:07;;;;;;;11.27;4.45;;;;;;;16.94;56.55;101011.16;5009675;28;20073;-67
2022/08/22 02:32:39;;;;;;;9.63;4.93;;;;;;;16.91;56.88;101012.38;5003173;28;20142;-68
2022/08/22 02:35:13;;;;;;;17.88;5.47;;;;;;;16.89;56.35;101009.88;5009775;28;20076;-67
2022/08/22 02:37:56;;;;;;;10.35;4.53;;;;;;;16.84;56.71;101014.19;5009467;28;20073;-67
2022/08/22 02:40:33;;;;;;;10.40;4.75;;;;;;;16.86;56.61;101010.28;5008772;28;20057;-67
2022/08/22 02:43:10;;;;;;;12.27;4.85;;;;;;;16.90;56.38;101011.53;5010205;28;20133;-67
2022/08/22 02:45:52;;;;;;;10.57;4.75;;;;;;;16.99;55.84;101009.56;5013797;28;20050;-67
2022/08/22 02:48:18;;;;;;;7.03;4.38;;;;;;;17.01;55.99;101012.06;5013155;28;20137;-67
2022/08/22 02:51:20;;;;;;;12.45;4.45;;;;;;;17.07;55.66;101011.28;5013917;28;20069;-67
2022/08/22 02:54:05;;;;;;;8.07;4.95;;;;;;;17.12;55.72;101004.22;4993477;28;20106;-67
2022/08/22 02:56:38;;;;;;;10.20;5.07;;;;;;;16.91;56.20;101009.66;5013275;28;20400;-67
2022/08/22 02:59:26;;;;;;;8.68;4.88;;;;;;;16.77;56.84;101005.16;5012512;28;20045;-67
2022/08/22 03:01:54;;;;;;;9.90;4.00;;;;;;;16.70;57.39;100996.16;5012462;28;20454;-66
2022/08/22 03:04:29;;;;;;;11.20;5.03;;;;;;;16.67;57.58;100998.19;5013138;28;20062;-66
2022/08/22 03:07:10;;;;;;;8.35;4.63;;;;;;;16.77;57.18;101010.59;5012205;28;20125;-65
2022/08/22 03:09:50;;;;;;;8.93;4.80;;;;;;;16.84;56.89;101006.06;5012525;28;20049;-66
2022/08/22 03:12:31;;;;;;;7.70;4.28;;;;;;;16.69;57.26;101002.59;5020012;28;20149;-66
2022/08/22 03:15:06;;;;;;;10.80;4.47;;;;;;;16.77;57.20;101011.41;5032342;28;20524;-66
2022/08/22 03:17:46;;;;;;;11.70;5.10;;;;;;;16.73;57.20;100996.59;5032490;28;20124;-66
2022/08/22 03:20:22;;;;;;;7.63;4.60;;;;;;;16.72;57.29;100996.81;5032868;28;20152;-66
2022/08/22 03:23:03;;;;;;;9.30;4.60;;;;;;;16.67;57.55;101003.63;5032924;28;20129;-66
2022/08/22 03:25:50;;;;;;;13.70;4.80;;;;;;;16.65;57.57;100992.16;5033258;28;20065;-66
2022/08/22 03:28:27;;;;;;;10.18;4.78;;;;;;;16.64;57.45;100993.19;5031845;28;20045;-66
2022/08/22 03:30:58;;;;;;;11.73;4.55;;;;;;;16.70;57.44;100996.16;5032453;28;20084;-66
2022/08/22 03:33:29;;;;;;;9.07;4.65;;;;;;;16.71;57.17;100997.81;5032771;28;20128;-66
2022/08/22 03:35:58;;;;;;;10.88;5.38;;;;;;;16.67;57.47;101000.06;5024484;28;20115;-66
2022/08/22 03:38:33;;;;;;;12.30;5.30;;;;;;;16.65;57.67;100996.75;4991544;28;20125;-67
2022/08/22 03:41:11;;;;;;;12.20;5.43;;;;;;;16.67;57.77;100998.19;4986351;28;20125;-67
2022/08/22 03:43:50;;;;;;;12.75;5.13;;;;;;;16.73;57.59;100995.75;4992137;28;20403;-67
2022/08/22 03:46:47;;;;;;;11.13;5.10;;;;;;;16.75;57.17;101005.38;4975885;28;20533;-66
2022/08/22 03:49:48;;;;;;;9.07;4.55;;;;;;;16.78;56.88;101007.69;4993061;28;20137;-67
2022/08/22 03:53:07;;;;;;;9.27;4.57;;;;;;;16.84;56.71;101000.66;4991958;28;20893;-66
2022/08/22 03:55:50;;;;;;;12.05;4.82;;;;;;;16.78;57.48;100996.88;4989849;28;20154;-67
2022/08/22 03:58:45;;;;;;;15.00;5.20;;;;;;;16.79;57.70;101003.13;4991543;28;20114;-66
2022/08/22 04:01:30;;;;;;;10.57;4.45;;;;;;;16.77;57.88;101010.59;4989723;28;20125;-67
2022/08/22 04:04:06;;;;;;;14.45;5.40;;;;;;;16.72;57.99;101004.94;4991894;28;20153;-67
2022/08/22 04:06:48;;;;;;;12.70;4.63;;;;;;;16.77;57.62;101011.41;4991802;28;20053;-67
2022/08/22 04:09:18;;;;;;;7.70;4.55;;;;;;;16.74;57.26;101003.69;4992674;28;20070;-65
2022/08/22 04:11:52;;;;;;;14.77;7.75;;;;;;;16.76;57.31;101006.22;5011782;28;20054;-66
2022/08/22 04:14:24;;;;;;;17.02;6.38;;;;;;;16.75;57.29;101008.09;5013231;28;20073;-67
2022/08/22 04:17:36;;;;;;;12.23;5.22;;;;;;;16.96;56.70;101015.38;5002847;28;20117;-66
2022/08/22 04:20:08;;;;;;;10.65;4.78;;;;;;;17.04;56.10;101012.50;4945426;28;20139;-67
2022/08/22 04:22:49;;;;;;;9.48;5.15;;;;;;;16.81;56.99;101012.72;4952868;28;20472;-67
2022/08/22 04:25:22;;;;;;;9.35;4.43;;;;;;;16.77;57.45;101018.72;4952785;28;20134;-67
2022/08/22 04:28:26;;;;;;;8.02;4.30;;;;;;;16.79;57.29;101024.78;4952891;28;20488;-67
2022/08/22 04:31:02;;;;;;;7.20;4.60;;;;;;;16.80;57.33;101029.16;4945844;28;20126;-66
2022/08/22 04:33:38;;;;;;;11.02;4.38;;;;;;;16.84;57.48;101027.75;4952381;28;20137;-67
2022/08/22 04:36:31;;;;;;;11.57;4.95;;;;;;;16.90;57.59;101032.41;4952517;28;20114;-66
2022/08/22 04:39:12;;;;;;;12.25;4.93;;;;;;;16.86;57.55;101026.53;4966525;28;20515;-67
2022/08/22 04:41:50;;;;;;;9.70;4.43;;;;;;;16.89;57.46;101023.44;4971144;28;20142;-67
2022/08/22 04:44:26;;;;;;;8.40;4.53;;;;;;;16.94;57.19;101032.84;4971661;28;20138;-67
2022/08/22 04:47:04;;;;;;;9.27;4.95;;;;;;;16.93;57.28;101032.00;4971616;28;20050;-67
2022/08/22 04:49:39;;;;;;;9.15;4.88;;;;;;;16.97;57.11;101036.00;4970488;28;20126;-67
2022/08/22 04:52:23;;;;;;;10.50;4.45;;;;;;;17.00;57.12;101042.91;4971757;28;20043;-68
2022/08/22 04:55:16;;;;;;;7.55;4.68;;;;;;;17.04;57.06;101044.19;5025660;28;20045;-67
2022/08/22 04:58:00;;;;;;;11.65;5.10;;;;;;;17.05;57.11;101041.28;5031801;28;20041;-67
2022/08/22 05:00:40;;;;;;;10.57;4.85;;;;;;;17.03;57.31;101050.66;5030717;28;20045;-67
2022/08/22 05:03:11;;;;;;;18.65;6.20;;;;;;;17.09;56.97;101053.44;5031066;28;20042;-67
2022/08/22 05:05:40;;;;;;;15.25;6.30;;;;;;;17.13;57.23;101051.16;5031165;28;20045;-67
2022/08/22 05:08:12;;;;;;;30.08;7.90;;;;;;;17.16;57.13;101055.34;5031080;28;20049;-68
2022/08/22 05:10:45;;;;;;;25.63;7.43;;;;;;;17.16;57.55;101063.47;5031289;28;20132;-67
2022/08/22 05:13:28;;;;;;;18.40;6.78;;;;;;;17.17;57.39;101065.16;5031677;28;20136;-66
2022/08/22 05:15:58;;;;;;;19.40;6.82;;;;;;;17.14;56.90;101066.38;5032050;28;20119;-67
2022/08/22 05:18:30;;;;;;;18.73;6.32;;;;;;;17.25;56.73;101063.13;5031911;28;20069;-67
2022/08/22 05:21:00;;;;;;;11.82;5.22;;;;;;;17.33;56.83;101073.00;5031612;28;20125;-66
2022/08/22 05:23:35;;;;;;;22.67;6.60;;;;;;;17.33;56.45;101071.13;5031156;28;20050;-68
2022/08/22 05:26:05;;;;;;;12.85;5.50;;;;;;;17.41;55.93;101072.91;5031113;28;20523;-68
2022/08/22 05:28:42;;;;;;;15.70;5.80;;;;;;;17.43;55.84;101065.41;5031665;28;20081;-67
2022/08/22 05:31:14;;;;;;;19.00;5.80;;;;;;;17.38;56.88;101076.00;5031990;28;20147;-67
2022/08/22 05:33:51;;;;;;;25.73;5.88;;;;;;;17.42;57.07;101084.59;5031527;28;20120;-67
2022/08/22 05:36:24;;;;;;;17.33;5.97;;;;;;;17.38;57.18;101076.00;5030390;28;20370;-67
2022/08/22 05:38:55;;;;;;;17.35;6.05;;;;;;;17.52;56.48;101079.66;5030633;28;20132;-67
2022/08/22 05:41:26;;;;;;;21.30;7.95;;;;;;;17.67;56.00;101076.84;5037660;28;20129;-67
2022/08/22 05:43:54;;;;;;;15.50;7.35;;;;;;;17.74;55.82;101089.41;5031150;28;20193;-66
2022/08/22 05:46:46;;;;;;;15.07;7.35;;;;;;;17.79;55.70;101086.94;5031076;28;20103;-66
2022/08/22 05:49:19;;;;;;;15.45;5.85;;;;;;;17.82;55.66;101081.13;5030871;28;20053;-66
2022/08/22 05:52:18;;;;;;;16.98;5.95;;;;;;;17.81;55.97;101084.03;5030889;28;20069;-67
2022/08/22 05:55:05;;;;;;;14.82;5.93;;;;;;;17.98;55.43;101079.94;5030982;28;20041;-67
2022/08/22 05:57:37;;;;;;;22.35;5.95;;;;;;;18.00;55.61;101085.19;5030856;28;20057;-66
2022/08/22 06:00:10;;;;;;;16.83;5.15;;;;;;;18.02;55.66;101085.81;5031381;28;20069;-67
2022/08/22 06:03:05;;;;;;;21.83;6.20;;;;;;;18.15;55.54;101085.91;5031642;28;20056;-66
2022/08/22 06:05:37;;;;;;;14.98;5.97;;;;;;;18.24;55.21;101089.31;5030450;28;20492;-66
2022/08/22 06:08:19;;;;;;;16.95;6.35;;;;;;;18.27;55.37;101089.75;5030350;28;20049;-66
2022/08/22 06:10:55;;;;;;;16.48;5.65;;;;;;;18.35;55.04;101091.44;5031279;28;20120;-66
2022/08/22 06:13:31;;;;;;;20.45;6.25;;;;;;;18.44;55.13;101092.91;5023346;28;20128;-66
2022/08/22 06:16:20;;;;;;;13.32;5.40;;;;;;;18.52;54.84;101090.03;5030298;28;20103;-67
2022/08/22 06:18:48;;;;;;;16.58;5.85;;;;;;;18.62;54.69;101091.50;5031337;28;20100;-67
2022/08/22 06:21:28;;;;;;;17.58;6.32;;;;;;;18.61;54.89;101096.13;5031494;28;20117;-67
2022/08/22 06:24:02;;;;;;;22.42;5.95;;;;;;;18.63;54.82;101098.66;5032214;28;20498;-67
2022/08/22 06:26:37;;;;;;;16.17;6.57;;;;;;;18.78;54.58;101102.03;5030842;28;20061;-68
2022/08/22 06:29:06;;;;;;;27.08;6.65;;;;;;;18.76;53.97;101101.41;5016174;28;20096;-67
2022/08/22 06:31:49;;;;;;;12.55;5.93;;;;;;;18.84;53.22;101090.34;5010727;28;20049;-67
2022/08/22 06:34:27;;;;;;;14.63;5.70;;;;;;;18.96;52.09;101098.75;5003971;28;20140;-68
2022/08/22 06:36:56;;;;;;;12.50;5.75;;;;;;;18.96;51.53;101105.00;5012461;28;20483;-68
2022/08/22 06:39:28;;;;;;;13.20;6.13;;;;;;;18.98;51.75;101102.09;5011845;28;20045;-67
2022/08/22 06:42:07;;;;;;;17.25;6.40;;;;;;;19.08;51.54;101104.41;5011490;28;20470;-67
2022/08/22 06:45:13;;;;;;;10.52;5.50;;;;;;;19.20;50.86;101109.03;5011421;28;20048;-67
2022/08/22 06:48:06;;;;;;;14.32;5.75;;;;;;;19.30;50.65;101107.78;5010271;28;20154;-67
2022/08/22 06:50:40;;;;;;;12.80;5.32;;;;;;;19.36;50.57;101110.50;5003827;28;20133;-67
2022/08/22 06:53:20;;;;;;;17.67;5.32;;;;;;;19.29;49.83;101115.09;5011323;28;20057;-66
2022/08/22 06:55:51;;;;;;;15.43;5.32;;;;;;;19.33;49.83;101116.34;5011410;28;20650;-67
2022/08/22 06:58:40;;;;;;;9.23;5.22;;;;;;;19.27;49.88;101122.63;5012896;28;20133;-67
2022/08/22 07:01:11;;;;;;;25.15;5.95;;;;;;;19.44;48.98;101115.72;5010983;28;20142;-67
2022/08/22 07:04:03;;;;;;;12.88;4.82;;;;;;;19.62;48.88;101125.13;5011103;28;20065;-66
2022/08/22 07:06:34;;;;;;;23.45;5.82;;;;;;;19.79;48.09;101120.13;5011186;28;20068;-66
2022/08/22 07:09:03;;;;;;;12.68;5.63;;;;;;;19.94;48.22;101118.84;5010861;28;20065;-66
2022/08/22 07:11:37;;;;;;;14.48;5.22;;;;;;;20.07;47.79;101122.59;4994093;28;20045;-67
2022/08/22 07:14:07;;;;;;;9.82;4.32;;;;;;;19.72;49.22;101109.25;5009025;28;20137;-67
2022/08/22 07:16:52;;;;;;;14.80;4.40;;;;;;;20.14;47.60;101120.69;5005902;28;20073;-67
2022/08/22 07:19:31;;;;;;;10.55;4.68;;;;;;;20.33;46.11;101122.50;5010902;28;20133;-67
2022/08/22 07:22:09;;;;;;;15.05;4.72;;;;;;;20.32;46.81;101123.56;5010689;28;20125;-67
2022/08/22 07:24:45;;;;;;;12.57;4.20;;;;;;;20.47;46.50;101122.50;5009970;28;20466;-67
2022/08/22 07:27:14;;;;;;;19.92;4.57;;;;;;;20.65;46.25;101125.34;5010390;28;20066;-68
2022/08/22 07:30:03;;;;;;;12.98;3.95;;;;;;;20.79;44.88;101131.56;5013371;28;20046;-68
2022/08/22 07:32:50;;;;;;;8.00;3.38;;;;;;;20.87;43.55;101140.34;5015054;28;20069;-68
2022/08/22 07:35:20;;;;;;;13.43;4.00;;;;;;;20.76;42.75;101135.53;5013866;28;20049;-68
2022/08/22 07:38:14;;;;;;;8.60;3.00;;;;;;;20.78;42.74;101130.72;5013926;28;20084;-67
2022/08/22 07:40:49;;;;;;;9.68;3.35;;;;;;;20.85;42.41;101126.06;5014553;28;20105;-67
2022/08/22 07:43:29;;;;;;;9.93;3.28;;;;;;;20.74;45.13;101128.66;5012049;28;20137;-67
2022/08/22 07:46:13;;;;;;;14.25;3.53;;;;;;;20.89;43.80;101127.28;5013349;28;20454;-69
2022/08/22 07:49:04;;;;;;;9.55;3.22;;;;;;;20.90;42.78;101129.00;5013744;28;20124;-67
2022/08/22 07:51:43;;;;;;;17.65;3.58;;;;;;;21.17;43.42;101128.81;5007427;28;20141;-67
2022/08/22 07:54:13;;;;;;;14.60;2.45;;;;;;;20.83;41.56;101140.97;5013959;28;20130;-66
2022/08/22 07:56:51;;;;;;;9.95;2.63;;;;;;;20.79;41.67;101129.66;5013461;28;20125;-66
2022/08/22 07:59:20;;;;;;;8.70;2.20;;;;;;;20.89;40.54;101135.47;5013338;28;20092;-66
2022/08/22 08:01:53;;;;;;;11.60;2.80;;;;;;;20.78;41.59;101132.63;4996217;28;20076;-66
2022/08/22 08:04:25;;;;;;;6.47;1.90;;;;;;;20.94;41.63;101143.03;5013453;28;20104;-66
2022/08/22 08:06:55;;;;;;;5.18;1.83;;;;;;;21.11;40.08;101146.06;5013497;28;20393;-67
2022/08/22 08:09:25;;;;;;;7.32;2.15;;;;;;;21.24;39.79;101137.81;5013260;28;20076;-67
2022/08/22 08:11:53;;;;;;;8.20;2.35;;;;;;;21.57;39.74;101139.44;5013270;28;20502;-67
2022/08/22 08:14:22;;;;;;;5.57;2.03;;;;;;;21.31;40.41;101135.84;5013301;28;20057;-66
2022/08/22 08:17:09;;;;;;;6.20;2.13;;;;;;;21.54;40.51;101139.88;5013468;28;20121;-67
2022/08/22 08:19:40;;;;;;;7.78;2.08;;;;;;;21.54;39.58;101134.44;5012485;28;20084;-66
2022/08/22 08:22:06;;;;;;;7.90;1.73;;;;;;;21.63;39.01;101144.00;5013397;28;20072;-66
2022/08/22 08:24:39;;;;;;;7.65;2.13;;;;;;;21.39;39.15;101140.22;5013125;28;20124;-67
2022/08/22 08:30:15;;;;;;;8.10;2.33;;;;;;;21.56;40.45;101137.75;5013481;28;20041;-68
2022/08/22 08:32:46;;;;;;;;;;;;;;;21.88;38.03;101135.81;5013694;28;20046;-66
2022/08/22 08:35:27;;;;;;;11.85;2.05;;;;;;;22.11;38.76;101140.59;5012651;28;20119;-67
2022/08/22 08:38:09;;;;;;;6.30;1.80;;;;;;;21.75;38.53;101139.47;5012869;28;20073;-66
2022/08/22 08:41:29;;;;;;;7.43;2.05;;;;;;;21.64;38.72;101134.75;5012591;28;20348;-67
2022/08/22 08:44:02;;;;;;;6.40;1.85;;;;;;;21.56;38.73;101143.22;4990626;28;20459;-66
2022/08/22 08:47:13;;;;;;;4.68;1.77;;;;;;;21.46;38.88;101134.69;4990980;28;20565;-66
2022/08/22 08:49:51;;;;;;;4.63;2.00;;;;;;;21.19;39.21;101121.28;4950700;28;20050;-68
2022/08/22 08:52:53;;;;;;;8.52;2.20;;;;;;;21.54;39.12;101128.97;4989833;28;20136;-68
2022/08/22 08:55:41;;;;;;;5.63;1.65;;;;;;;21.46;39.40;101123.78;4990236;28;20483;-67
2022/08/22 08:58:37;;;;;;;6.70;1.92;;;;;;;21.62;38.69;101126.78;4990569;28;20062;-67
2022/08/22 09:01:33;;;;;;;7.03;2.30;;;;;;;21.53;38.54;101133.59;4990759;28;20121;-67
2022/08/22 09:04:12;;;;;;;6.80;2.03;;;;;;;21.65;39.27;101125.50;4990247;28;20474;-67
2022/08/22 09:06:40;;;;;;;7.33;2.37;;;;;;;21.83;39.21;101132.91;4991480;28;20047;-68
2022/08/22 09:09:40;;;;;;;8.70;2.20;;;;;;;22.07;38.27;101134.75;4989625;28;20278;-68
2022/08/22 09:12:46;;;;;;;8.52;2.50;;;;;;;21.93;39.49;101126.94;4989690;28;20065;-67
2022/08/22 09:15:36;;;;;;;9.05;1.92;;;;;;;21.92;38.11;101128.84;5009782;28;20042;-68
2022/08/22 09:18:25;;;;;;;;;;;;;;;22.35;37.16;101132.56;5012537;28;20052;-68
2022/08/22 09:21:01;;;;;;;13.95;2.00;;;;;;;22.17;37.75;101127.94;5013712;28;20293;-68
2022/08/22 09:23:35;;;;;;;8.65;1.98;;;;;;;22.61;36.79;101132.28;5012373;28;20553;-67
2022/08/22 09:26:17;;;;;;;6.82;2.13;;;;;;;22.66;36.91;101132.41;5012355;28;20328;-68
2022/08/22 09:28:53;;;;;;;13.63;2.15;;;;;;;22.78;36.91;101135.22;5011594;28;20068;-68
2022/08/22 09:31:28;;;;;;;9.27;2.22;;;;;;;22.54;37.07;101126.06;5012114;28;20057;-67
2022/08/22 09:34:30;;;;;;;11.00;2.05;;;;;;;22.64;36.82;101142.75;5012568;28;20393;-68
2022/08/22 09:37:26;;;;;;;7.95;2.05;;;;;;;22.30;37.74;101136.00;5010793;28;20128;-66
2022/08/22 09:40:15;;;;;;;9.88;2.35;;;;;;;22.50;36.91;101141.25;4988212;28;20126;-68
2022/08/22 09:43:00;;;;;;;12.77;2.38;;;;;;;21.86;38.35;101135.19;5011270;28;20442;-68
2022/08/22 09:45:47;;;;;;;12.30;2.00;;;;;;;21.98;38.15;101129.81;5011441;28;20054;-67
2022/08/22 09:48:27;;;;;;;8.40;2.35;;;;;;;22.36;37.05;101135.09;5011201;28;20073;-68
2022/08/22 09:51:05;;;;;;;6.55;1.90;;;;;;;22.94;36.85;101131.81;5010714;28;20076;-68
2022/08/22 09:54:07;;;;;;;6.40;2.00;;;;;;;22.40;37.52;101140.94;5010220;28;20042;-67
2022/08/22 09:56:34;;;;;;;6.63;1.85;;;;;;;22.07;38.37;101129.31;5011068;28;20093;-69
2022/08/22 09:59:19;;;;;;;16.27;2.25;;;;;;;22.14;37.71;101134.69;5011344;28;20069;-68
2022/08/22 10:01:56;;;;;;;9.52;2.42;;;;;;;22.30;38.00;101136.00;5011558;28;20125;-67
2022/08/22 10:04:40;;;;;;;10.98;2.15;;;;;;;22.92;36.25;101136.69;5003640;28;20498;-68
2022/08/22 10:07:34;;;;;;;8.43;1.90;;;;;;;22.55;38.20;101134.03;5011348;28;20129;-68
2022/08/22 10:10:14;;;;;;;8.65;2.03;;;;;;;23.71;35.35;101142.84;5011187;28;20129;-68
2022/08/22 10:13:18;;;;;;;6.00;1.90;;;;;;;22.89;36.44;101139.06;5010905;28;20073;-68
2022/08/22 10:16:06;;;;;;;13.80;2.42;;;;;;;22.99;35.77;101140.16;4997593;28;20046;-67
2022/08/22 10:18:46;;;;;;;9.75;2.58;;;;;;;22.80;36.55;101144.00;4974698;28;20054;-66
2022/08/22 10:21:19;;;;;;;9.68;2.13;;;;;;;23.10;36.25;101141.25;5011258;28;20428;-67
2022/08/22 10:24:04;;;;;;;10.20;2.50;;;;;;;22.97;36.15;101146.94;5011060;28;20098;-68
2022/08/22 10:26:47;;;;;;;8.35;2.33;;;;;;;22.93;36.69;101148.47;5010970;28;20457;-68
2022/08/22 10:29:36;;;;;;;5.88;2.03;;;;;;;23.40;35.38;101137.66;5011428;28;20054;-68
2022/08/22 10:32:12;;;;;;;5.90;2.08;;;;;;;23.14;37.07;101144.41;4981485;28;20069;-68
2022/08/22 10:34:46;;;;;;;8.65;2.13;;;;;;;23.84;34.29;101140.94;5010804;28;20138;-68
2022/08/22 10:37:38;;;;;;;10.98;2.17;;;;;;;23.30;36.38;101132.78;5010530;28;20073;-68
2022/08/22 10:40:31;;;;;;;6.47;1.80;;;;;;;22.87;36.21;101138.44;5010744;28;20042;-68
2022/08/22 10:43:17;;;;;;;7.82;2.15;;;;;;;22.97;36.21;101144.19;5011015;28;20121;-68
2022/08/22 10:45:47;;;;;;;20.35;3.13;;;;;;;22.91;36.49;101136.91;5011267;28;20081;-68
2022/08/22 10:48:35;;;;;;;6.80;2.00;;;;;;;23.18;34.71;101140.94;5010526;28;20466;-68
2022/08/22 10:51:15;;;;;;;43.20;6.03;;;;;;;22.86;36.85;101134.03;5010412;28;20125;-68
2022/08/22 10:53:55;;;;;;;18.02;2.67;;;;;;;22.85;35.37;101135.13;5011208;28;20045;-68
2022/08/22 10:56:30;;;;;;;21.75;3.35;;;;;;;23.06;35.79;101131.84;5010579;28;20081;-68
2022/08/22 10:59:24;;;;;;;8.40;1.77;;;;;;;23.30;33.80;101129.22;5010462;28;20125;-69
2022/08/22 11:02:35;;;;;;;8.18;2.05;;;;;;;23.54;34.20;101132.78;5010753;28;20429;-67
2022/08/22 11:05:26;;;;;;;9.15;1.80;;;;;;;23.64;31.95;101133.91;5013448;28;20058;-67
2022/08/22 11:08:08;;;;;;;10.95;1.88;;;;;;;22.86;33.53;101134.03;5014388;28;20038;-67
2022/08/22 11:10:53;;;;;;;9.07;1.80;;;;;;;22.58;34.46;101140.94;5013701;28;20050;-68
2022/08/22 11:13:38;;;;;;;10.93;2.55;;;;;;;22.61;36.00;101126.81;5013692;28;20125;-68
2022/08/22 11:16:26;;;;;;;8.10;2.08;;;;;;;22.54;34.95;101128.78;5013938;28;20124;-68
2022/08/22 11:19:29;;;;;;;4.78;1.80;;;;;;;22.64;35.80;101128.25;4996537;28;20060;-67
2022/08/22 11:22:24;;;;;;;11.73;1.80;;;;;;;22.89;35.46;101133.59;5012736;28;20042;-68
2022/08/22 11:25:03;;;;;;;8.43;1.67;;;;;;;23.28;32.44;101129.44;5014145;28;20499;-69
2022/08/22 11:28:09;;;;;;;8.93;1.95;;;;;;;23.59;30.94;101139.22;5019489;28;20486;-68
2022/08/22 11:30:56;;;;;;;7.70;2.20;;;;;;;23.85;32.12;101132.50;5007922;28;20502;-68
2022/08/22 11:33:39;;;;;;;5.68;1.30;;;;;;;23.70;30.44;101134.84;5013392;28;20086;-69
2022/08/22 11:36:45;;;;;;;4.63;1.75;;;;;;;23.48;32.15;101135.41;5013976;28;20096;-69
2022/08/22 11:39:33;;;;;;;4.32;1.50;;;;;;;22.97;33.38;101119.56;4996571;28;20057;-69
2022/08/22 11:42:31;;;;;;;4.95;1.70;;;;;;;22.76;34.89;101124.47;5013916;28;20050;-69
2022/08/22 11:45:05;;;;;;;12.30;1.77;;;;;;;22.48;35.60;101105.09;5012414;28;20046;-68
2022/08/22 11:48:07;;;;;;;5.18;1.60;;;;;;;22.87;34.09;101117.38;5014907;28;20045;-68
2022/08/22 11:50:38;;;;;;;10.70;2.20;;;;;;;23.46;33.46;101123.03;4966704;28;20046;-68
2022/08/22 11:53:21;;;;;;;6.38;1.92;;;;;;;23.22;34.16;101117.50;4994348;28;21073;-69
2022/08/22 11:56:12;;;;;;;8.57;2.15;;;;;;;22.84;34.04;101120.59;4993738;28;20130;-69
2022/08/22 11:59:19;;;;;;;8.60;2.00;;;;;;;22.61;34.09;101115.88;4994588;28;20075;-68
2022/08/22 12:02:02;;;;;;;3.63;1.55;;;;;;;22.32;34.31;101120.19;4940100;28;20053;-67
2022/08/22 12:04:50;;;;;;;8.20;1.67;;;;;;;22.86;34.67;101120.38;4993216;28;20046;-68
2022/08/22 12:07:31;;;;;;;8.68;1.58;;;;;;;22.51;34.86;101116.41;4993822;28;20081;-68
2022/08/22 12:10:03;;;;;;;5.05;1.75;;;;;;;22.48;34.83;101116.03;4989896;28;20129;-69
2022/08/22 12:12:41;;;;;;;6.20;1.92;;;;;;;21.94;35.74;101115.78;4993880;28;20502;-68
2022/08/22 12:15:22;;;;;;;6.07;2.00;;;;;;;22.26;35.61;101112.94;4987685;28;20046;-67
2022/08/22 12:18:23;;;;;;;5.32;2.00;;;;;;;22.38;35.12;101112.97;4993460;28;20046;-67
2022/08/22 12:21:01;;;;;;;5.68;1.88;;;;;;;22.08;35.21;101108.28;4994011;28;20042;-67
2022/08/22 12:23:47;;;;;;;6.95;1.70;;;;;;;22.11;35.89;101110.56;4992973;28;20061;-67
2022/08/22 12:26:24;;;;;;;6.53;1.80;;;;;;;22.29;36.08;101110.56;4993256;28;20379;-68
2022/08/22 12:29:02;;;;;;;8.60;1.67;;;;;;;22.41;35.16;101096.94;4992959;28;20050;-67
2022/08/22 12:32:15;;;;;;;6.90;1.95;;;;;;;22.23;36.48;101105.19;5025185;28;20053;-68
2022/08/22 12:35:03;;;;;;;9.68;1.85;;;;;;;22.37;36.03;101090.28;5032828;28;20037;-67